Oakland, NJ (07436)

3:37 PM EDT on September 02, 2014 (GMT -0400)
KNJOAKLA11 RamapoRiver | Change Station
CLOSE
Current Station
Personal Weather Station
Location: Oakland, NJ
Elevation: 260 ft
Nearby Weather Stations
Active Advisory: Air Quality Alert

Elev 260 ft 41.03 °N, 74.24 °W | Updated 8 seconds ago

Partly Cloudy
Partly Cloudy
90.9 °F
Feels Like 97 °F
N
4.0
Wind Variable Wind from WNW
Gusts 11.0 mph

Today
High -- | Low -- °F
--% Chance of Precip.
Yesterday
High -- | Low -- °F
Precip. -- in
6:24 AM 7:27 PM
First Quarter, 54% visible
Pressure 29.86 in
Visibility 10.0 miles
Clouds Few 4700 ft
Heat Index 97 °F
Dew Point 71 °F
Humidity 52%
Rainfall 0.00 in
Snow Depth Not available.
UV 6 out of 12
Pollen 8.40 out of 12
Air Quality Not available.
Flu Activity Not available.
METAR KCDW 021853Z 23009KT 10SM FEW047 32/19 A2985 RMK AO2 SLP110 T03220194

More Conditions Fewer Conditions

Pressure 29.86 in
Visibility 10.0 miles
Clouds Few 4700 ft
Heat Index 97 °F
Dew Point 71 °F
Humidity 52%
Rainfall 0.00 in
Snow Depth Not available.
UV 6 out of 12
Pollen 8.40 out of 12
Air Quality Not available.
Flu Activity Not available.
METAR KCDW 021853Z 23009KT 10SM FEW047 32/19 A2985 RMK AO2 SLP110 T03220194

More Conditions Fewer Conditions

10-Day Weather Forecast

Almanac

Astronomy

Sep. 02, 2014 Rise Set
Actual Time 6:24 AM EDT 7:27 PM EDT
Civil Twilight 5:56 AM EDT 7:56 PM EDT
Nautical Twilight 5:22 AM EDT 8:29 PM EDT
Astronomical Twilight 4:47 AM EDT 9:04 PM EDT
Moon 2:09 PM EDT No Moon Set
Length of Visible Light 13h 59m
Length of Day
13h 03m
Tomorrow will be 2m 37s shorter.
First Quarter, 54% of the Moon is Illuminated
Today
First Quarter
Sep 8
Full
Sep 15
Last Quarter
Sep 24
New
Oct 1
First Quarter

Today's Extremes

State Highs State Lows

Community

WunderPhotos

Upload Photos

1,749,750 photos uploaded!

WunderBlogs® & News

By Dr. Jeff Masters
Director of Meteorology, Weather Underground
By Kari Strenfel
Meteorologist, Weather Underground
By Christopher C. Burt
Weather Historian, Weather Underground
September 2, 2014
September 2, 2014
September 2, 2014

Nearby

Snow Depth

Station Depth Elevation
No new snow has been reported.

Earthquake Activity

City Distance Mag. Time & Date
No recent earthquake activity has been reported nearby.
Minimum magnitude displayed is 2.5.

Coastal Water Temperatures

Place Temperature
Kings Point, NY 75.0 °F
Bridgeport, CT 75.9 °F

Nearby Weather Stations